sensor_id;sensor_type;location;lat;lon;timestamp;pressure;altitude;pressure_sealevel;temperature;humidity
76990;BME280;65924;47.250;11.332;2023-07-24T00:00:26;94648.40;;;20.31;71.95
76990;BME280;65924;47.250;11.332;2023-07-24T00:10:27;94639.59;;;20.26;71.17
76990;BME280;65924;47.250;11.332;2023-07-24T00:20:27;94630.17;;;20.19;71.88
76990;BME280;65924;47.250;11.332;2023-07-24T00:30:28;94623.46;;;20.15;71.68
76990;BME280;65924;47.250;11.332;2023-07-24T00:40:28;94614.14;;;20.12;71.30
76990;BME280;65924;47.250;11.332;2023-07-24T00:50:30;94607.10;;;20.09;71.66
76990;BME280;65924;47.250;11.332;2023-07-24T01:00:31;94614.11;;;20.04;71.22
76990;BME280;65924;47.250;11.332;2023-07-24T01:10:32;94607.09;;;19.99;71.47
76990;BME280;65924;47.250;11.332;2023-07-24T01:20:34;94595.73;;;19.94;70.79
76990;BME280;65924;47.250;11.332;2023-07-24T01:30:36;94579.46;;;19.87;71.95
76990;BME280;65924;47.250;11.332;2023-07-24T01:40:38;94561.05;;;19.84;72.50
76990;BME280;65924;47.250;11.332;2023-07-24T01:50:39;94536.01;;;19.77;72.35
76990;BME280;65924;47.250;11.332;2023-07-24T02:00:40;94543.36;;;19.71;72.59
76990;BME280;65924;47.250;11.332;2023-07-24T02:10:40;94534.83;;;19.67;72.40
76990;BME280;65924;47.250;11.332;2023-07-24T02:20:41;94538.65;;;19.60;72.24
76990;BME280;65924;47.250;11.332;2023-07-24T02:30:42;94539.52;;;19.55;72.10
76990;BME280;65924;47.250;11.332;2023-07-24T02:40:43;94543.40;;;19.47;72.07
76990;BME280;65924;47.250;11.332;2023-07-24T02:50:47;94541.48;;;19.41;73.04
76990;BME280;65924;47.250;11.332;2023-07-24T03:00:48;94526.72;;;19.33;72.42
76990;BME280;65924;47.250;11.332;2023-07-24T03:10:48;94508.80;;;19.27;72.38
76990;BME280;65924;47.250;11.332;2023-07-24T03:20:49;94499.81;;;19.21;73.37
76990;BME280;65924;47.250;11.332;2023-07-24T03:30:50;94484.02;;;19.17;74.04
76990;BME280;65924;47.250;11.332;2023-07-24T03:40:51;94490.61;;;19.14;73.08
76990;BME280;65924;47.250;11.332;2023-07-24T03:50:58;94510.86;;;19.08;73.27
76990;BME280;65924;47.250;11.332;2023-07-24T04:01:02;94501.90;;;19.03;72.46
76990;BME280;65924;47.250;11.332;2023-07-24T04:11:03;94489.46;;;18.99;73.06
76990;BME280;65924;47.250;11.332;2023-07-24T04:21:05;94498.65;;;18.95;72.85
76990;BME280;65924;47.250;11.332;2023-07-24T04:31:06;94498.85;;;18.89;72.95
76990;BME280;65924;47.250;11.332;2023-07-24T04:41:07;94503.49;;;18.86;73.22
76990;BME280;65924;47.250;11.332;2023-07-24T04:51:07;94481.19;;;18.84;74.14
76990;BME280;65924;47.250;11.332;2023-07-24T05:01:08;94478.98;;;18.85;73.95
76990;BME280;65924;47.250;11.332;2023-07-24T05:11:09;94483.90;;;18.89;74.03
76990;BME280;65924;47.250;11.332;2023-07-24T05:21:11;94478.23;;;18.94;73.32
76990;BME280;65924;47.250;11.332;2023-07-24T05:31:11;94484.88;;;19.00;74.77
76990;BME280;65924;47.250;11.332;2023-07-24T05:41:12;94473.03;;;19.08;75.53
76990;BME280;65924;47.250;11.332;2023-07-24T05:51:12;94457.89;;;19.14;74.79
76990;BME280;65924;47.250;11.332;2023-07-24T06:01:13;94461.30;;;19.25;74.91
76990;BME280;65924;47.250;11.332;2023-07-24T06:11:14;94446.25;;;19.32;74.28
76990;BME280;65924;47.250;11.332;2023-07-24T06:21:15;94450.82;;;19.43;74.10
76990;BME280;65924;47.250;11.332;2023-07-24T06:31:15;94442.93;;;19.55;74.52
76990;BME280;65924;47.250;11.332;2023-07-24T06:41:19;94445.73;;;19.70;74.32
76990;BME280;65924;47.250;11.332;2023-07-24T06:51:21;94446.27;;;19.86;74.13
76990;BME280;65924;47.250;11.332;2023-07-24T07:01:22;94435.29;;;20.00;72.68
76990;BME280;65924;47.250;11.332;2023-07-24T07:11:22;94441.45;;;20.07;71.94
76990;BME280;65924;47.250;11.332;2023-07-24T07:21:23;94463.18;;;20.11;72.41
76990;BME280;65924;47.250;11.332;2023-07-24T07:31:24;94539.77;;;20.11;75.03
76990;BME280;65924;47.250;11.332;2023-07-24T07:41:24;94609.96;;;20.04;76.33
76990;BME280;65924;47.250;11.332;2023-07-24T07:51:25;94554.06;;;19.83;78.52
76990;BME280;65924;47.250;11.332;2023-07-24T08:01:26;94477.33;;;19.63;80.16
76990;BME280;65924;47.250;11.332;2023-07-24T08:11:27;94485.92;;;19.55;81.76
76990;BME280;65924;47.250;11.332;2023-07-24T08:21:27;94496.67;;;19.56;83.23
76990;BME280;65924;47.250;11.332;2023-07-24T08:31:29;94496.56;;;19.57;83.67
76990;BME280;65924;47.250;11.332;2023-07-24T08:41:30;94492.10;;;19.62;83.56
76990;BME280;65924;47.250;11.332;2023-07-24T08:51:33;94472.52;;;19.68;84.24
76990;BME280;65924;47.250;11.332;2023-07-24T09:01:33;94469.05;;;19.78;84.34
76990;BME280;65924;47.250;11.332;2023-07-24T09:11:46;94461.20;;;19.93;84.90
76990;BME280;65924;47.250;11.332;2023-07-24T09:21:47;94452.86;;;20.10;84.49
76990;BME280;65924;47.250;11.332;2023-07-24T09:31:47;94439.25;;;20.29;84.32
76990;BME280;65924;47.250;11.332;2023-07-24T09:41:49;94389.39;;;20.51;84.42
76990;BME280;65924;47.250;11.332;2023-07-24T09:51:53;94372.19;;;20.70;84.04
76990;BME280;65924;47.250;11.332;2023-07-24T10:01:56;94352.14;;;20.85;82.83
76990;BME280;65924;47.250;11.332;2023-07-24T10:11:57;94333.09;;;21.00;82.37
76990;BME280;65924;47.250;11.332;2023-07-24T10:21:58;94290.33;;;21.11;81.96
76990;BME280;65924;47.250;11.332;2023-07-24T10:31:59;94249.46;;;21.19;81.35
76990;BME280;65924;47.250;11.332;2023-07-24T10:42:05;94234.60;;;21.26;82.42
76990;BME280;65924;47.250;11.332;2023-07-24T10:52:07;94211.75;;;21.33;81.00
76990;BME280;65924;47.250;11.332;2023-07-24T11:02:08;94219.83;;;21.43;79.51
76990;BME280;65924;47.250;11.332;2023-07-24T11:12:14;94213.48;;;21.63;80.10
76990;BME280;65924;47.250;11.332;2023-07-24T11:22:21;94216.42;;;21.85;78.67
76990;BME280;65924;47.250;11.332;2023-07-24T11:32:23;94191.41;;;22.01;76.07
76990;BME280;65924;47.250;11.332;2023-07-24T11:42:27;94191.38;;;22.14;75.52
76990;BME280;65924;47.250;11.332;2023-07-24T11:52:38;94152.82;;;22.22;75.39
76990;BME280;65924;47.250;11.332;2023-07-24T12:02:41;94120.91;;;22.27;74.55
76990;BME280;65924;47.250;11.332;2023-07-24T12:12:46;94103.67;;;22.36;74.27
76990;BME280;65924;47.250;11.332;2023-07-24T12:22:47;94091.15;;;22.57;74.69
76990;BME280;65924;47.250;11.332;2023-07-24T12:32:47;94086.43;;;22.83;73.64
76990;BME280;65924;47.250;11.332;2023-07-24T12:42:48;94114.28;;;23.09;73.34
76990;BME280;65924;47.250;11.332;2023-07-24T12:52:48;94110.88;;;23.24;72.85
76990;BME280;65924;47.250;11.332;2023-07-24T13:02:49;94120.21;;;23.25;70.67
76990;BME280;65924;47.250;11.332;2023-07-24T13:12:50;94137.92;;;23.19;72.57
76990;BME280;65924;47.250;11.332;2023-07-24T13:22:50;94167.48;;;23.08;71.93
76990;BME280;65924;47.250;11.332;2023-07-24T13:32:51;94153.38;;;22.96;69.49
76990;BME280;65924;47.250;11.332;2023-07-24T13:42:52;94170.02;;;22.88;71.19
76990;BME280;65924;47.250;11.332;2023-07-24T13:52:52;94151.14;;;22.77;72.74
76990;BME280;65924;47.250;11.332;2023-07-24T14:02:53;94115.20;;;22.65;72.41
76990;BME280;65924;47.250;11.332;2023-07-24T14:12:54;94060.40;;;22.57;74.47
76990;BME280;65924;47.250;11.332;2023-07-24T14:22:55;94051.21;;;22.56;74.51
76990;BME280;65924;47.250;11.332;2023-07-24T14:32:56;94021.60;;;22.63;71.65
76990;BME280;65924;47.250;11.332;2023-07-24T14:42:57;93985.82;;;22.82;71.28
76990;BME280;65924;47.250;11.332;2023-07-24T14:52:58;94011.91;;;23.02;68.77
76990;BME280;65924;47.250;11.332;2023-07-24T15:02:59;94003.92;;;23.21;67.75
76990;BME280;65924;47.250;11.332;2023-07-24T15:13:01;94008.06;;;23.28;64.98
76990;BME280;65924;47.250;11.332;2023-07-24T15:23:02;94000.65;;;23.28;64.76
76990;BME280;65924;47.250;11.332;2023-07-24T15:33:03;93989.44;;;23.22;62.98
76990;BME280;65924;47.250;11.332;2023-07-24T15:43:04;93968.05;;;23.17;64.85
76990;BME280;65924;47.250;11.332;2023-07-24T15:53:05;93940.99;;;23.10;64.79
76990;BME280;65924;47.250;11.332;2023-07-24T16:03:05;93927.55;;;23.05;66.66
76990;BME280;65924;47.250;11.332;2023-07-24T16:13:06;93947.14;;;22.97;65.48
76990;BME280;65924;47.250;11.332;2023-07-24T16:23:08;93978.86;;;22.90;66.81
76990;BME280;65924;47.250;11.332;2023-07-24T16:33:08;93974.90;;;22.80;68.23
76990;BME280;65924;47.250;11.332;2023-07-24T16:43:10;93918.58;;;22.73;70.83
76990;BME280;65924;47.250;11.332;2023-07-24T16:53:10;93917.27;;;22.62;68.78
76990;BME280;65924;47.250;11.332;2023-07-24T17:03:13;93947.98;;;22.55;71.00
76990;BME280;65924;47.250;11.332;2023-07-24T17:13:15;93993.35;;;22.45;73.15
76990;BME280;65924;47.250;11.332;2023-07-24T17:23:16;94129.31;;;22.32;75.28
76990;BME280;65924;47.250;11.332;2023-07-24T17:33:17;94138.15;;;22.16;77.79
76990;BME280;65924;47.250;11.332;2023-07-24T17:43:18;94092.34;;;21.74;75.88
76990;BME280;65924;47.250;11.332;2023-07-24T17:53:19;94115.88;;;21.34;75.98
76990;BME280;65924;47.250;11.332;2023-07-24T18:03:20;94151.73;;;21.14;77.93
76990;BME280;65924;47.250;11.332;2023-07-24T18:13:21;94111.52;;;21.00;79.17
76990;BME280;65924;47.250;11.332;2023-07-24T18:23:24;94078.41;;;20.90;79.73
76990;BME280;65924;47.250;11.332;2023-07-24T18:33:28;94075.05;;;20.79;79.30
76990;BME280;65924;47.250;11.332;2023-07-24T18:43:31;94093.58;;;20.71;78.97
76990;BME280;65924;47.250;11.332;2023-07-24T18:53:33;94112.66;;;20.68;79.38
76990;BME280;65924;47.250;11.332;2023-07-24T19:03:35;94097.48;;;20.65;79.78
76990;BME280;65924;47.250;11.332;2023-07-24T19:13:37;94101.48;;;20.61;80.18
76990;BME280;65924;47.250;11.332;2023-07-24T19:23:40;94118.73;;;20.56;79.39
76990;BME280;65924;47.250;11.332;2023-07-24T19:33:43;94128.47;;;20.53;79.36
76990;BME280;65924;47.250;11.332;2023-07-24T19:43:44;94153.70;;;20.48;78.65
76990;BME280;65924;47.250;11.332;2023-07-24T19:53:48;94193.31;;;20.40;78.09
76990;BME280;65924;47.250;11.332;2023-07-24T20:03:49;94200.88;;;20.33;79.84
76990;BME280;65924;47.250;11.332;2023-07-24T20:13:50;94182.11;;;20.28;80.43
76990;BME280;65924;47.250;11.332;2023-07-24T20:23:51;94127.80;;;20.25;80.21
76990;BME280;65924;47.250;11.332;2023-07-24T20:33:52;94138.70;;;20.22;78.79
76990;BME280;65924;47.250;11.332;2023-07-24T20:43:53;94160.19;;;20.15;79.38
76990;BME280;65924;47.250;11.332;2023-07-24T20:53:54;94177.27;;;20.06;79.13
76990;BME280;65924;47.250;11.332;2023-07-24T21:03:58;94172.77;;;20.00;78.75
76990;BME280;65924;47.250;11.332;2023-07-24T21:13:59;94181.48;;;19.94;78.70
76990;BME280;65924;47.250;11.332;2023-07-24T21:24:00;94210.00;;;19.84;78.83
76990;BME280;65924;47.250;11.332;2023-07-24T21:34:00;94220.08;;;19.80;79.66
76990;BME280;65924;47.250;11.332;2023-07-24T21:44:01;94212.96;;;19.79;79.85
76990;BME280;65924;47.250;11.332;2023-07-24T21:54:02;94211.17;;;19.78;79.65
76990;BME280;65924;47.250;11.332;2023-07-24T22:04:03;94203.95;;;19.78;80.22
76990;BME280;65924;47.250;11.332;2023-07-24T22:14:04;94219.28;;;19.81;80.46
76990;BME280;65924;47.250;11.332;2023-07-24T22:24:04;94213.44;;;19.81;80.37
76990;BME280;65924;47.250;11.332;2023-07-24T22:34:05;94201.29;;;19.80;79.96
76990;BME280;65924;47.250;11.332;2023-07-24T22:44:06;94200.89;;;19.78;80.94
76990;BME280;65924;47.250;11.332;2023-07-24T22:54:06;94180.56;;;19.74;80.39
76990;BME280;65924;47.250;11.332;2023-07-24T23:04:07;94162.23;;;19.73;80.36
76990;BME280;65924;47.250;11.332;2023-07-24T23:14:08;94142.74;;;19.71;80.73
76990;BME280;65924;47.250;11.332;2023-07-24T23:24:09;94133.83;;;19.71;80.79
76990;BME280;65924;47.250;11.332;2023-07-24T23:34:10;94123.70;;;19.70;80.46
76990;BME280;65924;47.250;11.332;2023-07-24T23:44:10;94140.81;;;19.70;80.78
76990;BME280;65924;47.250;11.332;2023-07-24T23:54:11;94125.10;;;19.67;80.52
